Terminal Aerodrome Forecast
Issued by NWS

Home | Current Version | Previous Version | Text Only | Print | Product List | Glossary On
Versions: 1 2 3 4 5 6 7 8 9 10 11 12 13 14 15 16 17
413
FTUS44 KTSA 291740
TAFFYV
TAF
KFYV 291740Z 2918/3018 08011KT P6SM SCT015 BKN050
      TEMPO 2921/2923 BKN015
     FM292300 10010KT P6SM -TSRA BKN015CB
      TEMPO 3000/3003 4SM TSRA BKN007CB
     FM300600 13010KT 4SM TSRA BKN008CB
     FM300900 16006KT 6SM BR OVC007 PROB30 3009/3014 4SM -TSRA
      BKN010CB
     FM301600 21007KT P6SM BKN015=

USA.gov is the U.S. government's official web portal to all federal, state and local government web resources and services.